createdAt,value
2018-12-20T00:02:05.242Z,117.83
2018-12-20T00:04:41.010Z,102.80
2018-12-20T00:07:18.791Z,115.60
2018-12-20T00:09:54.614Z,120.17
2018-12-20T00:12:30.722Z,99.67
2018-12-20T00:15:06.655Z,84.53
2018-12-20T00:17:48.360Z,79.40
2018-12-20T00:20:24.335Z,67.57
2018-12-20T00:23:00.511Z,71.23
2018-12-20T00:25:36.491Z,69.70
2018-12-20T00:28:13.299Z,67.37
2018-12-20T00:30:49.317Z,58.97
2018-12-20T00:33:25.149Z,56.93
2018-12-20T00:36:00.981Z,61.77
2018-12-20T00:38:36.770Z,60.00
2018-12-20T00:41:12.734Z,61.53
2018-12-20T00:43:48.635Z,58.10
2018-12-20T00:46:24.771Z,60.93
2018-12-20T00:49:00.728Z,57.77
2018-12-20T00:51:37.424Z,56.80
2018-12-20T00:54:13.036Z,47.77
2018-12-20T00:56:49.142Z,55.63
2018-12-20T00:59:25.841Z,51.10
2018-12-20T01:02:01.807Z,53.77
2018-12-20T01:04:38.485Z,52.63
2018-12-20T01:07:15.350Z,47.00
2018-12-20T01:09:51.481Z,47.17
2018-12-20T01:12:27.351Z,52.50
2018-12-20T01:15:04.188Z,52.03
2018-12-20T01:17:39.900Z,43.60
2018-12-20T01:23:42.239Z,50.17
2018-12-20T01:26:18.157Z,48.27
2018-12-20T01:28:54.052Z,44.30
2018-12-20T01:31:29.950Z,51.73
2018-12-20T01:34:05.647Z,48.93
2018-12-20T01:36:41.459Z,52.10
2018-12-20T01:39:17.368Z,52.10
2018-12-20T01:41:53.312Z,49.43
2018-12-20T01:44:29.229Z,45.93
2018-12-20T01:47:05.140Z,51.73
2018-12-20T01:49:41.085Z,47.43
2018-12-20T01:52:31.223Z,54.30
2018-12-20T01:55:07.717Z,52.07
2018-12-20T01:57:43.706Z,53.93
2018-12-20T02:00:19.486Z,47.33
2018-12-20T02:02:57.367Z,49.20
2018-12-20T02:05:33.510Z,57.57
2018-12-20T02:08:09.299Z,57.03
2018-12-20T02:10:45.205Z,56.27
2018-12-20T02:13:21.098Z,58.03
2018-12-20T02:15:56.887Z,55.60
2018-12-20T02:18:32.786Z,64.73
2018-12-20T02:21:08.873Z,60.30
2018-12-20T02:23:45.424Z,50.40
2018-12-20T02:26:22.166Z,47.57
2018-12-20T02:28:58.120Z,49.13
2018-12-20T02:31:33.860Z,50.13
2018-12-20T02:34:09.958Z,48.20
2018-12-20T02:36:45.587Z,41.90
2018-12-20T02:39:21.587Z,35.63
2018-12-20T02:41:57.849Z,35.53
2018-12-20T02:44:33.856Z,32.27
2018-12-20T02:47:09.599Z,35.90
2018-12-20T02:49:45.369Z,32.37
2018-12-20T02:52:21.391Z,32.87
2018-12-20T02:54:57.342Z,29.53
2018-12-20T02:57:33.417Z,29.10
2018-12-20T03:00:09.806Z,30.20
2018-12-20T03:02:47.425Z,29.47
2018-12-20T03:05:23.290Z,26.80
2018-12-20T03:07:59.223Z,28.03
2018-12-20T03:10:35.758Z,27.00
2018-12-20T03:13:11.862Z,28.93
2018-12-20T03:15:47.918Z,19.93
2018-12-20T03:18:24.575Z,25.57
2018-12-20T03:21:00.599Z,23.13
2018-12-20T03:23:36.601Z,21.20
2018-12-20T03:26:13.123Z,19.60
2018-12-20T03:28:49.250Z,18.70
2018-12-20T03:31:25.287Z,17.40
2018-12-20T03:34:01.458Z,14.83
2018-12-20T03:36:37.374Z,13.60
2018-12-20T03:39:13.727Z,13.00
2018-12-20T03:41:49.352Z,12.63
2018-12-20T03:44:25.527Z,14.77
2018-12-20T03:47:02.399Z,14.60
2018-12-20T03:49:38.473Z,14.13
2018-12-20T03:52:15.283Z,18.50
2018-12-20T03:54:51.100Z,16.00
2018-12-20T03:57:27.315Z,13.70
2018-12-20T04:00:05.757Z,13.10
2018-12-20T04:02:41.704Z,9.87
2018-12-20T04:05:17.678Z,10.17
2018-12-20T04:07:53.416Z,12.80
2018-12-20T04:10:29.453Z,11.00
2018-12-20T04:13:06.143Z,9.07
2018-12-20T04:15:42.214Z,11.30
2018-12-20T04:18:18.135Z,11.57
2018-12-20T04:20:54.129Z,8.70
2018-12-20T04:23:30.338Z,10.40
2018-12-20T04:26:05.886Z,9.27
2018-12-20T04:28:42.008Z,9.03
2018-12-20T04:31:18.858Z,9.20
2018-12-20T04:33:54.867Z,8.07
2018-12-20T04:36:30.645Z,8.03
2018-12-20T04:39:08.534Z,9.20
2018-12-20T04:41:44.503Z,8.73
2018-12-20T04:44:20.548Z,8.60
2018-12-20T04:46:56.091Z,8.77
2018-12-20T04:49:33.162Z,8.57
2018-12-20T04:52:09.323Z,9.63
2018-12-20T04:54:45.108Z,8.10
2018-12-20T04:57:21.936Z,8.80
2018-12-20T04:59:58.563Z,11.37
2018-12-20T05:02:35.267Z,8.57
2018-12-20T05:05:10.988Z,8.73
2018-12-20T05:07:46.892Z,9.67
2018-12-20T05:10:22.606Z,8.40
2018-12-20T05:12:58.461Z,10.37
2018-12-20T05:15:34.444Z,9.67
2018-12-20T05:18:10.494Z,8.70
2018-12-20T05:20:46.113Z,9.47
2018-12-20T05:23:22.115Z,8.70
2018-12-20T05:25:58.250Z,9.67
2018-12-20T05:28:33.951Z,9.83
2018-12-20T05:31:11.837Z,8.97
2018-12-20T05:33:47.496Z,11.00
2018-12-20T05:36:24.380Z,13.23
2018-12-20T05:39:01.148Z,13.30
2018-12-20T05:41:36.904Z,11.80
2018-12-20T05:44:13.019Z,11.93
2018-12-20T05:46:49.534Z,14.47
2018-12-20T05:49:25.747Z,14.27
2018-12-20T05:52:02.367Z,16.30
2018-12-20T05:54:38.817Z,15.00
2018-12-20T05:57:14.589Z,15.90
2018-12-20T05:59:51.540Z,18.07
2018-12-20T06:02:27.268Z,15.37
2018-12-20T06:05:03.712Z,15.90
2018-12-20T06:07:40.272Z,16.87
2018-12-20T06:10:16.036Z,21.03
2018-12-20T06:12:55.844Z,16.77
2018-12-20T06:15:34.128Z,13.87
2018-12-20T06:18:11.311Z,16.23
2018-12-20T06:20:47.812Z,14.43
2018-12-20T06:23:24.376Z,14.40
2018-12-20T06:25:59.910Z,15.60
2018-12-20T06:28:36.054Z,16.93
2018-12-20T06:31:12.142Z,14.47
2018-12-20T06:33:49.096Z,16.20
2018-12-20T06:36:25.139Z,15.43
2018-12-20T06:39:01.048Z,16.73
2018-12-20T06:41:37.073Z,13.13
2018-12-20T06:44:13.031Z,15.00
2018-12-20T06:46:50.143Z,18.13
2018-12-20T06:49:25.641Z,18.03
2018-12-20T06:52:02.349Z,17.30
2018-12-20T06:54:39.314Z,19.13
2018-12-20T06:57:15.598Z,15.77
2018-12-20T06:59:52.203Z,14.83
2018-12-20T07:02:28.892Z,20.27
2018-12-20T07:05:06.159Z,17.53
2018-12-20T07:07:41.879Z,19.33
2018-12-20T07:10:17.904Z,18.60
2018-12-20T07:12:53.800Z,18.10
2018-12-20T07:15:30.406Z,20.37
2018-12-20T07:18:06.405Z,18.90
2018-12-20T07:20:42.891Z,20.87
2018-12-20T07:23:18.916Z,21.67
2018-12-20T07:25:54.921Z,22.23
2018-12-20T07:28:30.626Z,21.40
2018-12-20T07:31:06.875Z,20.60
2018-12-20T07:33:43.401Z,20.93
2018-12-20T07:36:19.446Z,21.73
2018-12-20T07:38:55.215Z,18.60
2018-12-20T07:41:31.076Z,20.37
2018-12-20T07:44:21.305Z,19.47
2018-12-20T07:46:56.859Z,22.13
2018-12-20T07:49:32.894Z,22.47
2018-12-20T07:52:09.715Z,24.80
2018-12-20T07:54:45.466Z,25.13
2018-12-20T07:57:21.434Z,23.23
2018-12-20T07:59:57.106Z,21.77
2018-12-20T08:02:32.997Z,21.73
2018-12-20T08:05:08.814Z,24.43
2018-12-20T08:07:44.735Z,24.87
2018-12-20T08:10:20.915Z,20.30
2018-12-20T08:12:56.799Z,23.83
2018-12-20T08:15:33.046Z,24.30
2018-12-20T08:18:09.507Z,22.93
2018-12-20T08:20:45.647Z,22.30
2018-12-20T08:23:21.599Z,27.90
2018-12-20T08:25:57.519Z,23.77
2018-12-20T08:28:33.444Z,22.27
2018-12-20T08:31:09.577Z,27.93
2018-12-20T08:33:45.628Z,21.50
2018-12-20T08:36:21.520Z,24.37
2018-12-20T08:38:57.243Z,25.63
2018-12-20T08:41:33.623Z,31.70
2018-12-20T08:44:09.693Z,26.97
2018-12-20T08:46:45.491Z,27.10
2018-12-20T08:49:21.157Z,28.67
2018-12-20T08:51:56.922Z,27.43
2018-12-20T08:54:33.006Z,26.43
2018-12-20T08:57:08.753Z,28.50
2018-12-20T08:59:44.636Z,26.90
2018-12-20T09:02:20.887Z,28.77
2018-12-20T09:04:57.119Z,26.10
2018-12-20T09:07:33.405Z,29.13
2018-12-20T09:10:09.047Z,27.60
2018-12-20T09:12:45.364Z,28.10
2018-12-20T09:15:20.927Z,28.80
2018-12-20T09:17:56.676Z,30.83
2018-12-20T09:20:32.947Z,30.57
2018-12-20T09:23:09.437Z,29.93
2018-12-20T09:25:45.521Z,32.40
2018-12-20T09:28:21.075Z,35.97
2018-12-20T09:30:56.845Z,33.30
2018-12-20T09:33:33.062Z,30.97
2018-12-20T09:36:08.649Z,34.87
2018-12-20T09:38:44.612Z,32.63
2018-12-20T09:41:21.204Z,37.67
2018-12-20T09:43:56.890Z,32.17
2018-12-20T09:46:33.018Z,36.33
2018-12-20T09:49:08.867Z,36.07
2018-12-20T09:51:44.972Z,34.33
2018-12-20T09:54:20.938Z,35.90
2018-12-20T09:56:56.850Z,38.63
2018-12-20T09:59:32.671Z,36.77
2018-12-20T10:02:09.129Z,38.00
2018-12-20T10:04:45.484Z,32.73
2018-12-20T10:07:21.456Z,36.10
2018-12-20T10:09:58.088Z,38.93
2018-12-20T10:12:34.466Z,41.37
2018-12-20T10:15:10.274Z,37.10
2018-12-20T10:17:46.201Z,36.17
2018-12-20T10:20:22.273Z,39.73
2018-12-20T10:22:58.142Z,37.60
2018-12-20T10:25:34.000Z,42.77
2018-12-20T10:28:09.782Z,38.07
2018-12-20T10:30:45.607Z,41.20
2018-12-20T10:33:21.320Z,39.10
2018-12-20T10:35:57.423Z,38.43
2018-12-20T10:38:33.416Z,36.17
2018-12-20T10:41:09.369Z,42.17
2018-12-20T10:43:45.223Z,47.20
2018-12-20T10:46:21.410Z,42.47
2018-12-20T10:48:58.832Z,45.93
2018-12-20T10:51:34.846Z,42.90
2018-12-20T10:54:10.919Z,39.37
2018-12-20T10:56:47.514Z,42.90
2018-12-20T10:59:23.331Z,40.00
2018-12-20T11:03:01.958Z,38.80
2018-12-20T11:06:42.103Z,37.67
2018-12-20T11:09:23.571Z,37.33
2018-12-20T11:12:05.361Z,35.03
2018-12-20T11:14:42.358Z,43.30
2018-12-20T11:17:18.744Z,41.17
2018-12-20T11:19:54.530Z,38.43
2018-12-20T11:22:30.581Z,45.13
2018-12-20T11:25:07.192Z,37.33
2018-12-20T11:27:42.824Z,38.10
2018-12-20T11:30:19.656Z,36.70
2018-12-20T11:32:55.247Z,35.77
2018-12-20T11:35:31.277Z,79.10
2018-12-20T11:38:07.239Z,59.50
2018-12-20T11:40:43.659Z,48.67
2018-12-20T11:43:19.864Z,43.80
2018-12-20T11:45:56.168Z,42.97
2018-12-20T11:48:32.237Z,40.70
2018-12-20T11:51:07.971Z,43.90
2018-12-20T11:53:44.166Z,51.90
2018-12-20T11:56:20.554Z,46.43
2018-12-20T11:58:56.260Z,45.03
2018-12-20T12:01:32.239Z,40.47
2018-12-20T12:04:08.075Z,40.77
2018-12-20T12:06:43.781Z,43.20
2018-12-20T12:09:20.003Z,41.77
2018-12-20T12:11:56.134Z,41.97
2018-12-20T12:14:32.052Z,43.17
2018-12-20T12:17:07.786Z,44.03
2018-12-20T12:19:43.902Z,41.10
2018-12-20T12:22:19.606Z,36.90
2018-12-20T12:24:55.303Z,41.97
2018-12-20T12:27:31.444Z,42.77
2018-12-20T12:30:09.297Z,41.40
2018-12-20T12:32:45.105Z,40.67
2018-12-20T12:35:20.670Z,43.20
2018-12-20T12:37:56.658Z,44.13
2018-12-20T12:40:32.613Z,40.43
2018-12-20T12:43:08.428Z,41.87
2018-12-20T12:45:44.232Z,42.53
2018-12-20T12:48:19.781Z,39.27
2018-12-20T12:50:55.903Z,40.80
2018-12-20T12:53:31.735Z,40.70
2018-12-20T12:56:07.680Z,43.93
2018-12-20T12:58:43.316Z,39.83
2018-12-20T13:01:19.399Z,45.37
2018-12-20T13:03:57.306Z,39.30
2018-12-20T13:06:34.569Z,43.57
2018-12-20T13:09:11.184Z,41.13
2018-12-20T13:11:46.932Z,47.23
2018-12-20T13:14:22.609Z,46.17
2018-12-20T13:16:58.496Z,39.97
2018-12-20T13:19:34.378Z,44.77
2018-12-20T13:22:10.008Z,48.87
2018-12-20T13:24:45.989Z,47.70
2018-12-20T13:27:21.799Z,46.60
2018-12-20T13:29:57.656Z,47.07
2018-12-20T13:32:33.320Z,51.03
2018-12-20T13:35:09.471Z,54.03
2018-12-20T13:37:46.340Z,51.40
2018-12-20T13:40:22.060Z,52.07
2018-12-20T13:42:57.814Z,54.97
2018-12-20T13:45:34.830Z,56.57
2018-12-20T13:48:10.962Z,57.03
2018-12-20T13:50:46.821Z,64.17
2018-12-20T13:53:22.778Z,57.17
2018-12-20T13:55:58.666Z,58.03
2018-12-20T13:58:34.644Z,54.50
2018-12-20T14:01:10.491Z,57.60
2018-12-20T14:03:46.454Z,55.47
2018-12-20T14:06:22.363Z,51.93
2018-12-20T14:08:58.127Z,54.73
2018-12-20T14:11:33.910Z,48.37
2018-12-20T14:14:09.880Z,57.73
2018-12-20T14:16:45.632Z,66.40
2018-12-20T14:19:21.259Z,67.77
2018-12-20T14:21:57.102Z,62.60
2018-12-20T14:24:33.611Z,65.60
2018-12-20T14:27:09.566Z,60.87
2018-12-20T14:29:45.415Z,62.37
2018-12-20T14:32:20.927Z,67.40
2018-12-20T14:34:56.802Z,60.03
2018-12-20T14:37:33.067Z,65.47
2018-12-20T14:40:09.869Z,66.53
2018-12-20T14:42:45.512Z,71.10
2018-12-20T14:45:21.469Z,72.37
2018-12-20T14:47:57.447Z,70.80
2018-12-20T14:50:32.967Z,67.83
2018-12-20T14:53:09.282Z,71.23
2018-12-20T14:55:45.207Z,65.70
2018-12-20T14:58:21.860Z,67.93
2018-12-20T15:00:57.484Z,71.17
2018-12-20T15:03:33.542Z,65.63
2018-12-20T15:06:09.243Z,66.67
2018-12-20T15:08:45.066Z,71.40
2018-12-20T15:11:22.822Z,67.27
2018-12-20T15:13:58.802Z,76.00
2018-12-20T15:16:34.739Z,67.87
2018-12-20T15:19:10.643Z,71.00
2018-12-20T15:21:46.455Z,65.73
2018-12-20T15:24:22.212Z,63.73
2018-12-20T15:26:58.048Z,63.27
2018-12-20T15:29:34.065Z,69.47
2018-12-20T15:32:10.059Z,62.33
2018-12-20T15:35:01.073Z,65.20
2018-12-20T15:37:38.076Z,67.23
2018-12-20T15:40:14.394Z,70.20
2018-12-20T15:42:50.310Z,69.10
2018-12-20T15:45:26.582Z,65.77
2018-12-20T15:48:02.430Z,77.90
2018-12-20T15:50:38.960Z,87.43
2018-12-20T15:53:15.091Z,89.77
2018-12-20T15:55:50.738Z,76.60
2018-12-20T15:58:26.588Z,70.63
2018-12-20T16:01:02.709Z,71.97
2018-12-20T16:03:38.507Z,74.70
2018-12-20T16:06:14.443Z,65.93
2018-12-20T16:08:50.160Z,70.20
2018-12-20T16:11:26.094Z,71.63
2018-12-20T16:14:02.192Z,70.03
2018-12-20T16:16:37.788Z,75.57
2018-12-20T16:19:14.035Z,74.03
2018-12-20T16:21:49.817Z,75.20
2018-12-20T16:24:26.859Z,73.57
2018-12-20T16:27:03.733Z,77.83
2018-12-20T16:29:40.390Z,73.67
2018-12-20T16:32:16.177Z,77.50
2018-12-20T16:34:52.419Z,70.87
2018-12-20T16:37:29.086Z,70.83
2018-12-20T16:40:06.208Z,75.10
2018-12-20T16:42:44.620Z,74.30
2018-12-20T16:45:21.019Z,71.90
2018-12-20T16:47:57.730Z,70.63
2018-12-20T16:50:33.446Z,75.27
2018-12-20T16:53:10.109Z,79.60
2018-12-20T16:55:46.479Z,87.17
2018-12-20T16:58:22.219Z,90.60
2018-12-20T17:00:58.417Z,87.77
2018-12-20T17:03:35.736Z,100.10
2018-12-20T17:06:11.713Z,97.03
2018-12-20T17:08:48.380Z,97.23
2018-12-20T17:11:24.751Z,100.17
2018-12-20T17:14:00.442Z,94.97
2018-12-20T17:16:36.236Z,95.03
2018-12-20T17:19:12.337Z,94.67
2018-12-20T17:21:49.516Z,106.27
2018-12-20T17:24:26.057Z,114.60
2018-12-20T17:27:02.472Z,108.20
2018-12-20T17:29:38.787Z,96.27
2018-12-20T17:32:14.606Z,91.67
2018-12-20T17:34:50.695Z,100.17
2018-12-20T17:37:28.189Z,97.87
2018-12-20T17:40:04.500Z,93.13
2018-12-20T17:42:41.151Z,99.63
2018-12-20T17:45:17.552Z,99.20
2018-12-20T17:47:53.611Z,103.30
2018-12-20T17:50:31.097Z,90.83
2018-12-20T17:53:07.676Z,97.77
2018-12-20T17:55:45.110Z,96.17
2018-12-20T17:58:23.241Z,98.80
2018-12-20T18:00:59.575Z,96.33
2018-12-20T18:03:35.545Z,75.33
2018-12-20T18:06:13.519Z,85.70
2018-12-20T18:08:52.203Z,81.63
2018-12-20T18:11:28.491Z,89.03
2018-12-20T18:14:05.561Z,84.97
2018-12-20T18:16:42.216Z,78.97
2018-12-20T18:19:19.697Z,78.63
2018-12-20T18:21:56.036Z,85.43
2018-12-20T18:24:32.152Z,88.07
2018-12-20T18:27:08.109Z,78.67
2018-12-20T18:29:50.476Z,76.80
2018-12-20T18:33:00.467Z,75.77
2018-12-20T18:35:36.979Z,82.10
2018-12-20T18:38:14.055Z,80.53
2018-12-20T18:40:50.829Z,79.23
2018-12-20T18:43:27.240Z,78.60
2018-12-20T18:46:03.520Z,84.13
2018-12-20T18:48:41.637Z,89.13
2018-12-20T18:51:18.410Z,85.60
2018-12-20T18:54:02.225Z,82.23
2018-12-20T18:56:38.451Z,77.80
2018-12-20T18:59:15.890Z,87.93
2018-12-20T19:01:52.379Z,89.90
2018-12-20T19:04:29.601Z,89.20
2018-12-20T19:07:06.759Z,92.97
2018-12-20T19:09:43.065Z,96.63
2018-12-20T19:12:19.455Z,84.10
2018-12-20T19:14:57.128Z,93.13
2018-12-20T19:17:33.909Z,94.97
2018-12-20T19:20:15.998Z,93.70
2018-12-20T19:22:49.736Z,101.77
2018-12-20T19:25:26.300Z,88.37
2018-12-20T19:28:02.439Z,95.37
2018-12-20T19:30:38.445Z,90.60
2018-12-20T19:33:14.348Z,89.37
2018-12-20T19:35:51.095Z,86.67
2018-12-20T19:38:27.096Z,95.40
2018-12-20T19:41:03.276Z,93.00
2018-12-20T19:43:39.784Z,87.30
2018-12-20T19:46:15.759Z,88.57
2018-12-20T19:48:51.486Z,86.13
2018-12-20T19:51:27.858Z,85.43
2018-12-20T19:54:04.222Z,97.80
2018-12-20T19:56:40.058Z,94.43
2018-12-20T19:59:16.437Z,90.57
2018-12-20T20:01:53.422Z,106.37
2018-12-20T20:04:30.028Z,95.97
2018-12-20T20:07:06.228Z,117.50
2018-12-20T20:09:41.900Z,114.37
2018-12-20T20:12:17.926Z,106.30
2018-12-20T20:14:54.343Z,111.93
2018-12-20T20:17:30.639Z,107.90
2018-12-20T20:20:13.923Z,109.67
2018-12-20T20:22:45.305Z,108.20
2018-12-20T20:25:22.337Z,108.13
2018-12-20T20:27:59.618Z,102.63
2018-12-20T20:30:35.769Z,108.27
2018-12-20T20:33:11.696Z,96.63
2018-12-20T20:35:50.010Z,99.70
2018-12-20T20:38:27.236Z,88.60
2018-12-20T20:41:13.024Z,92.83
2018-12-20T20:43:58.797Z,91.87
2018-12-20T20:46:35.291Z,100.23
2018-12-20T20:49:14.084Z,94.53
2018-12-20T20:51:50.508Z,95.10
2018-12-20T20:54:27.080Z,86.93
2018-12-20T20:57:09.481Z,91.70
2018-12-20T20:59:50.750Z,104.07
2018-12-20T21:02:23.526Z,94.67
2018-12-20T21:04:59.624Z,92.83
2018-12-20T21:07:39.428Z,88.63
2018-12-20T21:10:15.542Z,87.67
2018-12-20T21:12:55.830Z,97.50
2018-12-20T21:15:32.621Z,95.47
2018-12-20T21:18:08.716Z,95.60
2018-12-20T21:20:45.595Z,92.13
2018-12-20T21:23:23.977Z,95.37
2018-12-20T21:26:03.105Z,97.73
2018-12-20T21:28:39.004Z,84.07
2018-12-20T21:31:15.005Z,79.53
2018-12-20T21:33:51.835Z,84.87
2018-12-20T21:36:29.197Z,82.60
2018-12-20T21:39:07.343Z,82.83
2018-12-20T21:41:44.380Z,77.83
2018-12-20T21:44:20.868Z,92.40
2018-12-20T21:46:58.430Z,93.60
2018-12-20T21:49:34.715Z,94.57
2018-12-20T21:52:12.369Z,96.90
2018-12-20T21:54:52.302Z,89.80
2018-12-20T21:57:28.325Z,85.73
2018-12-20T22:00:09.189Z,76.90
2018-12-20T22:02:46.304Z,86.83
2018-12-20T22:05:23.135Z,78.13
2018-12-20T22:08:01.932Z,83.53
2018-12-20T22:10:38.116Z,84.23
2018-12-20T22:13:14.125Z,84.23
2018-12-20T22:15:50.533Z,79.03
2018-12-20T22:18:26.410Z,86.43
2018-12-20T22:21:02.394Z,78.87
2018-12-20T22:23:38.170Z,85.50
2018-12-20T22:26:14.018Z,97.00
2018-12-20T22:28:49.900Z,87.27
2018-12-20T22:31:26.619Z,92.33
2018-12-20T22:34:03.430Z,85.10
2018-12-20T22:36:39.516Z,95.50
2018-12-20T22:39:15.842Z,95.60
2018-12-20T22:41:52.049Z,93.40
2018-12-20T22:44:28.647Z,87.23
2018-12-20T22:47:04.455Z,91.77
2018-12-20T22:49:40.512Z,94.10
2018-12-20T22:52:16.268Z,85.23
2018-12-20T22:54:52.045Z,102.20
2018-12-20T22:57:28.112Z,104.00
2018-12-20T23:00:04.411Z,102.50
2018-12-20T23:02:40.833Z,120.90
2018-12-20T23:05:18.360Z,119.60
2018-12-20T23:07:54.055Z,153.63
2018-12-20T23:10:30.123Z,128.43
2018-12-20T23:13:05.854Z,131.67
2018-12-20T23:15:41.567Z,130.37
2018-12-20T23:18:17.782Z,105.97
2018-12-20T23:20:54.299Z,115.63
2018-12-20T23:23:30.046Z,110.07
2018-12-20T23:26:06.031Z,108.17
2018-12-20T23:28:41.839Z,110.93
2018-12-20T23:31:17.951Z,98.90
2018-12-20T23:33:54.705Z,100.90
2018-12-20T23:36:32.291Z,121.63
2018-12-20T23:39:08.222Z,101.80
2018-12-20T23:41:44.305Z,106.07
2018-12-20T23:44:20.091Z,91.03
2018-12-20T23:46:55.944Z,90.40
2018-12-20T23:49:31.813Z,88.40
2018-12-20T23:52:07.798Z,84.03
2018-12-20T23:54:43.758Z,75.53
2018-12-20T23:57:19.747Z,74.63
2018-12-20T23:59:55.660Z,89.67
